Time;durP1;ratioP1;P1;durP2;ratioP2;P2;SDS_P1;SDS_P2;PMS_P1;PMS_P2;Temp;Humidity;BMP_temperature;BMP_pressure;BME280_temperature;BME280_humidity;BME280_pressure;Samples;Min_cycle;Max_cycle;Signal;HPM_P1;HPM_P2
2021/08/26 04:02:18;;;;;;;10.93;9.27;;;16.20;99.90;;;;;;5150963;23;20535;-65
2021/08/26 04:04:44;;;;;;;10.27;9.20;;;16.20;99.90;;;;;;4994625;28;20481;-66
2021/08/26 04:07:12;;;;;;;10.97;9.30;;;16.30;99.90;;;;;;4996119;28;20500;-66
2021/08/26 04:09:39;;;;;;;10.93;9.20;;;16.30;99.90;;;;;;4998267;28;20457;-65
2021/08/26 04:12:06;;;;;;;10.00;9.10;;;16.30;99.90;;;;;;4997834;28;20846;-66
2021/08/26 04:14:32;;;;;;;9.53;8.70;;;16.40;99.90;;;;;;4997767;28;20460;-66
2021/08/26 04:16:59;;;;;;;11.37;10.17;;;16.50;99.90;;;;;;4998364;28;20461;-67
2021/08/26 04:19:27;;;;;;;9.60;8.70;;;16.50;99.90;;;;;;4998171;28;20941;-67
2021/08/26 04:21:54;;;;;;;10.40;8.97;;;16.60;99.90;;;;;;4998131;28;20474;-66
2021/08/26 04:24:21;;;;;;;10.07;9.17;;;16.60;99.90;;;;;;4997769;28;20454;-66
2021/08/26 04:26:47;;;;;;;14.13;9.17;;;16.60;99.90;;;;;;4997684;28;20533;-66
2021/08/26 04:29:14;;;;;;;14.10;8.90;;;16.60;99.90;;;;;;4997711;28;20457;-67
2021/08/26 04:31:41;;;;;;;10.93;8.90;;;16.60;99.90;;;;;;4997426;28;21003;-66
2021/08/26 04:34:07;;;;;;;10.47;8.47;;;16.70;99.90;;;;;;4996818;28;20813;-66
2021/08/26 04:36:36;;;;;;;11.50;8.80;;;16.60;99.90;;;;;;4997796;28;20461;-65
2021/08/26 04:39:02;;;;;;;10.40;8.83;;;16.70;99.90;;;;;;4997695;28;21050;-65
2021/08/26 04:41:29;;;;;;;11.70;9.33;;;16.70;99.90;;;;;;4997602;28;20473;-66
2021/08/26 04:43:56;;;;;;;11.83;8.73;;;16.70;99.90;;;;;;4997756;28;20826;-66
2021/08/26 04:46:22;;;;;;;10.37;9.20;;;16.70;99.90;;;;;;4997497;28;20457;-67
2021/08/26 04:48:49;;;;;;;10.60;9.43;;;16.80;99.90;;;;;;4997187;28;20941;-66
2021/08/26 04:51:16;;;;;;;13.70;9.63;;;16.80;99.90;;;;;;4997340;28;20474;-67
2021/08/26 04:53:44;;;;;;;10.60;9.00;;;16.80;99.90;;;;;;4997191;28;20473;-67
2021/08/26 04:56:10;;;;;;;11.60;9.67;;;16.80;99.90;;;;;;4996986;28;20825;-67
2021/08/26 04:58:39;;;;;;;11.43;9.97;;;16.80;99.90;;;;;;4997228;28;20855;-66
2021/08/26 05:01:05;;;;;;;11.07;10.00;;;16.80;99.90;;;;;;4997148;28;20485;-66
2021/08/26 05:03:32;;;;;;;10.13;9.13;;;16.80;99.90;;;;;;4997986;28;20481;-66
2021/08/26 05:05:59;;;;;;;11.03;9.90;;;16.80;99.90;;;;;;4997279;28;20454;-66
2021/08/26 05:08:26;;;;;;;10.50;9.47;;;16.90;99.90;;;;;;4996804;28;20464;-66
2021/08/26 05:10:54;;;;;;;10.90;9.37;;;16.90;99.90;;;;;;4997295;28;20655;-66
2021/08/26 05:13:20;;;;;;;11.33;10.07;;;16.90;99.90;;;;;;4996883;28;20897;-65
2021/08/26 05:15:47;;;;;;;12.07;10.80;;;16.90;99.90;;;;;;4996970;28;20460;-65
2021/08/26 05:18:14;;;;;;;11.93;10.60;;;16.90;99.90;;;;;;4995835;28;20450;-66
2021/08/26 05:20:41;;;;;;;12.20;10.90;;;16.90;99.90;;;;;;4996620;28;20473;-65
2021/08/26 05:23:08;;;;;;;11.63;10.60;;;16.90;99.90;;;;;;4996748;28;20446;-66
2021/08/26 05:25:35;;;;;;;10.77;9.77;;;16.90;99.90;;;;;;4996168;28;20530;-66
2021/08/26 05:28:04;;;;;;;15.50;10.10;;;16.90;99.90;;;;;;4997669;28;20469;-66
2021/08/26 05:30:30;;;;;;;10.27;9.10;;;16.90;99.90;;;;;;4996580;28;20478;-65
2021/08/26 05:32:58;;;;;;;12.03;10.90;;;16.90;99.90;;;;;;4996818;28;20478;-66
2021/08/26 05:35:24;;;;;;;9.97;8.97;;;16.90;99.90;;;;;;4996598;28;20450;-65
2021/08/26 05:37:51;;;;;;;10.73;9.63;;;16.90;99.90;;;;;;4996549;28;20450;-65
2021/08/26 05:40:18;;;;;;;16.00;10.57;;;17.00;99.90;;;;;;4996593;28;20454;-65
2021/08/26 05:42:45;;;;;;;13.67;10.60;;;16.90;99.90;;;;;;4996613;28;20861;-65
2021/08/26 05:45:13;;;;;;;13.20;10.93;;;16.90;99.90;;;;;;4996477;28;20466;-66
2021/08/26 05:47:39;;;;;;;10.53;9.63;;;16.90;99.90;;;;;;4996472;28;20461;-66
2021/08/26 05:50:07;;;;;;;12.47;11.10;;;17.00;99.90;;;;;;4996050;28;20963;-66
2021/08/26 05:52:34;;;;;;;14.80;11.73;;;17.00;99.90;;;;;;4996040;28;21038;-65
2021/08/26 05:55:01;;;;;;;13.50;12.20;;;17.00;99.90;;;;;;4996407;28;20457;-65
2021/08/26 05:57:27;;;;;;;13.07;11.60;;;17.00;99.90;;;;;;4996449;28;20461;-66
2021/08/26 05:59:54;;;;;;;13.80;12.17;;;17.00;99.90;;;;;;4996272;28;20454;-65
2021/08/26 06:02:22;;;;;;;12.83;11.43;;;16.90;99.90;;;;;;4995935;28;20481;-66
2021/08/26 06:04:49;;;;;;;15.70;12.33;;;16.90;99.90;;;;;;4995806;28;20453;-66
2021/08/26 06:07:15;;;;;;;17.53;12.70;;;16.90;99.90;;;;;;4996188;28;20476;-65
2021/08/26 06:09:42;;;;;;;14.10;12.40;;;16.90;99.90;;;;;;4996754;28;20458;-65
2021/08/26 06:12:09;;;;;;;13.87;12.47;;;17.00;99.90;;;;;;4995889;28;20481;-66
2021/08/26 06:14:35;;;;;;;13.80;12.40;;;16.90;99.90;;;;;;4995519;28;20458;-65
2021/08/26 06:17:02;;;;;;;13.57;10.97;;;16.90;99.90;;;;;;4995206;28;20461;-66
2021/08/26 06:19:30;;;;;;;14.57;11.03;;;16.90;99.90;;;;;;4995488;28;20464;-66
2021/08/26 06:21:57;;;;;;;12.70;10.97;;;17.00;99.90;;;;;;4995576;28;20482;-65
2021/08/26 06:24:24;;;;;;;11.83;10.67;;;17.00;99.90;;;;;;4995624;28;20450;-65
2021/08/26 06:26:50;;;;;;;13.63;11.40;;;16.90;99.90;;;;;;4995589;28;20461;-65
2021/08/26 06:29:19;;;;;;;13.83;10.40;;;16.90;99.90;;;;;;4995126;28;20458;-65
2021/08/26 06:31:47;;;;;;;10.77;9.70;;;16.90;99.90;;;;;;4995294;28;20564;-65
2021/08/26 06:34:14;;;;;;;19.13;11.40;;;16.90;99.90;;;;;;4994959;28;20489;-65
2021/08/26 06:36:42;;;;;;;13.53;11.33;;;16.90;99.90;;;;;;4995510;28;20827;-65
2021/08/26 06:39:08;;;;;;;16.33;10.23;;;16.90;99.90;;;;;;4995697;28;20530;-66
2021/08/26 06:41:35;;;;;;;11.77;10.60;;;16.90;99.90;;;;;;4995477;28;20481;-65
2021/08/26 06:44:02;;;;;;;11.93;10.83;;;17.00;99.90;;;;;;4995797;28;20453;-65
2021/08/26 06:46:29;;;;;;;12.20;10.90;;;17.00;99.90;;;;;;4995447;28;20868;-65
2021/08/26 06:48:56;;;;;;;13.23;11.83;;;17.00;99.90;;;;;;4995203;28;20457;-66
2021/08/26 06:51:23;;;;;;;13.67;12.27;;;16.90;99.90;;;;;;4995037;28;20478;-65
2021/08/26 06:53:51;;;;;;;12.63;11.33;;;16.90;99.90;;;;;;4995347;28;20551;-66
2021/08/26 06:56:18;;;;;;;13.63;12.33;;;16.90;99.90;;;;;;4995548;28;20461;-65
2021/08/26 06:58:44;;;;;;;12.17;11.07;;;17.00;99.90;;;;;;4995178;28;20465;-65
2021/08/26 07:01:11;;;;;;;14.67;12.30;;;17.00;99.90;;;;;;4994816;28;20490;-65
2021/08/26 07:03:38;;;;;;;14.03;11.20;;;17.10;99.90;;;;;;4995766;28;20457;-65
2021/08/26 07:06:04;;;;;;;14.77;13.30;;;17.10;99.90;;;;;;4994657;28;20453;-65
2021/08/26 07:08:31;;;;;;;15.40;13.80;;;17.10;99.90;;;;;;4994928;28;20457;-65
2021/08/26 07:10:59;;;;;;;14.47;12.90;;;17.20;99.90;;;;;;4995168;28;20473;-65
2021/08/26 07:13:26;;;;;;;15.03;13.57;;;17.20;99.90;;;;;;4994964;28;20482;-66
2021/08/26 07:15:53;;;;;;;15.67;13.97;;;17.20;99.90;;;;;;4995342;28;20457;-66
2021/08/26 07:18:19;;;;;;;16.00;14.37;;;17.20;99.90;;;;;;4995075;28;20480;-66
2021/08/26 07:20:47;;;;;;;15.93;14.27;;;17.20;99.90;;;;;;4995126;28;20473;-65
2021/08/26 07:23:14;;;;;;;15.17;13.60;;;17.30;99.90;;;;;;4995183;28;20834;-66
2021/08/26 07:25:41;;;;;;;14.70;13.20;;;17.30;99.90;;;;;;4994867;28;20552;-66
2021/08/26 07:28:09;;;;;;;14.57;13.17;;;17.20;99.90;;;;;;4995241;28;20458;-65
2021/08/26 07:30:36;;;;;;;14.50;13.00;;;17.30;99.90;;;;;;4994774;28;20480;-65
2021/08/26 07:33:03;;;;;;;14.20;12.90;;;17.30;99.90;;;;;;4994145;28;20477;-65
2021/08/26 07:35:29;;;;;;;17.63;12.53;;;17.30;99.90;;;;;;4994891;28;20460;-65
2021/08/26 07:37:56;;;;;;;14.50;13.00;;;17.30;99.90;;;;;;4994788;28;20457;-66
2021/08/26 07:40:23;;;;;;;13.27;11.90;;;17.30;99.90;;;;;;4994866;28;20453;-65
2021/08/26 07:42:50;;;;;;;13.03;11.73;;;17.30;99.90;;;;;;4997572;28;20453;-66
2021/08/26 07:45:18;;;;;;;14.80;13.30;;;17.30;99.90;;;;;;4998788;28;20483;-66
2021/08/26 07:47:45;;;;;;;15.47;13.83;;;17.30;99.90;;;;;;4998801;28;20453;-65
2021/08/26 07:50:12;;;;;;;14.40;12.90;;;17.30;99.90;;;;;;4998729;28;20453;-65
2021/08/26 07:52:39;;;;;;;15.97;14.37;;;17.20;99.90;;;;;;4998573;28;20481;-65
2021/08/26 07:55:07;;;;;;;17.03;15.33;;;17.10;99.90;;;;;;4998712;28;20453;-65
2021/08/26 07:57:34;;;;;;;17.30;15.60;;;17.00;99.90;;;;;;4998152;28;20457;-65
2021/08/26 08:00:01;;;;;;;15.43;13.93;;;16.90;99.90;;;;;;4998154;28;20821;-65
2021/08/26 08:02:29;;;;;;;16.97;14.50;;;16.80;99.90;;;;;;4998100;28;20498;-65
2021/08/26 08:04:56;;;;;;;14.33;12.93;;;16.80;99.90;;;;;;4998282;28;20461;-66
2021/08/26 08:07:22;;;;;;;15.43;13.83;;;16.80;99.90;;;;;;4998010;28;20941;-66
2021/08/26 08:09:49;;;;;;;16.07;14.57;;;16.70;99.90;;;;;;4998418;28;20480;-65
2021/08/26 08:12:16;;;;;;;16.73;15.10;;;16.50;99.90;;;;;;4998267;28;20563;-66
2021/08/26 08:14:43;;;;;;;17.67;15.90;;;16.30;99.90;;;;;;5002716;28;20480;-65
2021/08/26 08:17:10;;;;;;;18.60;16.90;;;16.30;99.90;;;;;;5009234;28;20481;-66
2021/08/26 08:19:39;;;;;;;18.17;16.37;;;16.30;99.90;;;;;;5008588;28;20458;-66
2021/08/26 08:22:05;;;;;;;17.73;15.97;;;16.40;99.90;;;;;;5004284;28;20501;-66
2021/08/26 08:24:32;;;;;;;17.27;15.60;;;16.50;99.90;;;;;;5000658;28;20454;-67
2021/08/26 08:26:59;;;;;;;17.83;16.03;;;16.50;99.90;;;;;;4998096;28;20450;-66
2021/08/26 08:29:26;;;;;;;18.97;17.30;;;16.60;99.90;;;;;;4998226;28;20458;-66
2021/08/26 08:31:53;;;;;;;17.73;16.13;;;16.70;99.90;;;;;;4997924;28;20478;-66
2021/08/26 08:34:19;;;;;;;19.10;17.30;;;16.70;99.90;;;;;;4997565;28;20481;-65
2021/08/26 08:36:47;;;;;;;19.13;17.37;;;16.70;99.90;;;;;;4998155;28;20458;-66
2021/08/26 08:39:14;;;;;;;20.37;18.13;;;16.90;99.90;;;;;;4997721;28;20461;-66
2021/08/26 08:41:41;;;;;;;19.07;17.17;;;16.90;99.90;;;;;;4997555;28;20457;-66
2021/08/26 08:44:08;;;;;;;18.97;16.90;;;17.00;99.90;;;;;;4997769;28;20457;-66
2021/08/26 08:46:35;;;;;;;19.47;17.50;;;17.10;99.90;;;;;;4997448;28;20453;-66
2021/08/26 08:49:04;;;;;;;19.53;17.60;;;17.10;99.90;;;;;;4996984;28;20465;-66
2021/08/26 08:51:32;;;;;;;19.90;17.20;;;17.10;99.90;;;;;;4996929;28;20516;-66
2021/08/26 08:54:00;;;;;;;20.10;18.30;;;17.30;99.90;;;;;;4997368;28;20480;-66
2021/08/26 08:56:27;;;;;;;20.73;18.80;;;17.20;99.90;;;;;;4997235;28;20453;-66
2021/08/26 08:58:58;;;;;;;20.13;18.33;;;17.30;99.90;;;;;;4997071;28;20465;-66
2021/08/26 09:01:25;;;;;;;20.47;18.60;;;17.40;99.90;;;;;;4996945;28;20482;-66
2021/08/26 09:03:52;;;;;;;22.50;20.40;;;17.50;99.90;;;;;;4998926;28;20460;-66
2021/08/26 09:06:18;;;;;;;22.07;19.97;;;17.50;99.90;;;;;;4997576;28;20485;-66
2021/08/26 09:09:03;;;;;;;30.63;21.13;;;17.30;99.90;;;;;;4996936;28;20457;-66
2021/08/26 09:11:30;;;;;;;22.90;20.70;;;17.30;99.90;;;;;;4997210;28;20528;-66
2021/08/26 09:13:57;;;;;;;22.23;20.10;;;17.20;99.90;;;;;;4997228;28;20832;-66
2021/08/26 09:16:37;;;;;;;22.13;19.90;;;17.20;99.90;;;;;;4997018;28;20465;-66
2021/08/26 09:19:20;;;;;;;21.93;19.87;;;17.20;99.90;;;;;;4996929;28;20974;-66
2021/08/26 09:21:47;;;;;;;21.83;19.83;;;17.10;99.90;;;;;;4996884;28;20477;-66
2021/08/26 09:24:15;;;;;;;19.80;18.00;;;17.10;99.90;;;;;;4997440;28;20967;-66
2021/08/26 09:26:46;;;;;;;20.10;18.10;;;17.00;99.90;;;;;;4996778;28;20458;-66
2021/08/26 09:29:13;;;;;;;21.77;19.27;;;16.90;99.90;;;;;;4996786;28;20536;-66
2021/08/26 09:31:39;;;;;;;18.73;17.13;;;16.80;99.90;;;;;;4996805;28;20474;-66
2021/08/26 09:34:10;;;;;;;16.93;15.47;;;16.90;99.90;;;;;;4996868;28;20485;-66
2021/08/26 09:36:52;;;;;;;16.97;15.47;;;17.00;99.90;;;;;;4996563;28;20438;-66
2021/08/26 09:39:21;;;;;;;16.30;14.97;;;17.10;99.90;;;;;;4996517;28;20441;-66
2021/08/26 09:41:50;;;;;;;15.23;13.83;;;17.20;99.90;;;;;;4996374;28;20489;-66
2021/08/26 09:44:18;;;;;;;13.80;12.50;;;17.40;99.90;;;;;;4996371;28;20452;-66
2021/08/26 09:46:47;;;;;;;14.20;13.10;;;17.40;99.90;;;;;;4996151;28;20465;-67
2021/08/26 09:49:16;;;;;;;14.27;13.17;;;17.30;99.90;;;;;;4996686;28;20438;-66
2021/08/26 09:51:44;;;;;;;13.60;12.50;;;17.30;99.90;;;;;;4996335;28;20476;-66
2021/08/26 09:54:33;;;;;;;12.87;11.80;;;17.10;99.90;;;;;;4996153;28;20540;-66
2021/08/26 09:57:01;;;;;;;12.87;11.60;;;17.10;99.90;;;;;;4996636;28;20437;-66
2021/08/26 09:59:44;;;;;;;12.93;11.83;;;17.00;99.90;;;;;;4996073;28;20485;-66
2021/08/26 10:02:12;;;;;;;14.97;13.67;;;16.90;99.90;;;;;;4995689;28;20993;-66
2021/08/26 10:04:41;;;;;;;11.40;10.50;;;16.80;99.90;;;;;;4995389;28;20440;-66
2021/08/26 10:07:08;;;;;;;12.23;11.23;;;16.80;99.90;;;;;;4995723;28;20839;-65
2021/08/26 10:09:37;;;;;;;12.50;11.40;;;16.80;99.90;;;;;;4995907;28;20465;-66
2021/08/26 10:12:06;;;;;;;12.20;11.20;;;16.90;99.90;;;;;;4996148;28;20477;-66
2021/08/26 10:14:33;;;;;;;10.97;10.17;;;16.80;99.90;;;;;;4996087;28;20988;-66
2021/08/26 10:17:00;;;;;;;11.73;10.73;;;16.70;99.90;;;;;;4996137;28;20458;-66
2021/08/26 10:19:27;;;;;;;10.80;10.00;;;16.60;99.90;;;;;;4995538;28;20529;-66
2021/08/26 10:21:54;;;;;;;10.13;9.43;;;16.70;99.90;;;;;;4995845;28;20484;-66
2021/08/26 10:24:22;;;;;;;9.60;8.90;;;16.70;99.90;;;;;;4995699;28;20450;-66
2021/08/26 10:26:54;;;;;;;10.03;9.13;;;16.60;99.90;;;;;;4995310;28;20454;-66
2021/08/26 10:29:22;;;;;;;9.23;8.53;;;16.60;99.90;;;;;;4995053;28;20974;-66
2021/08/26 10:31:55;;;;;;;9.20;8.50;;;16.70;99.90;;;;;;4995503;28;20577;-65
2021/08/26 10:34:23;;;;;;;8.30;7.70;;;16.80;99.90;;;;;;4995348;28;20466;-66
2021/08/26 10:37:20;;;;;;;8.20;7.60;;;16.90;99.90;;;;;;4996438;28;20453;-66
2021/08/26 10:39:48;;;;;;;8.10;7.30;;;17.00;99.90;;;;;;4995225;28;20464;-66
2021/08/26 10:42:44;;;;;;;7.87;7.27;;;17.20;99.90;;;;;;4994854;28;20474;-66
2021/08/26 10:45:19;;;;;;;8.07;7.47;;;17.30;99.90;;;;;;4995694;28;20450;-66
2021/08/26 10:48:08;;;;;;;8.10;7.10;;;17.40;99.90;;;;;;4995421;28;20437;-66
2021/08/26 10:50:38;;;;;;;6.80;6.20;;;17.80;99.90;;;;;;4995142;28;20478;-66
2021/08/26 10:53:07;;;;;;;7.43;6.80;;;18.10;99.90;;;;;;4995295;28;20444;-66
2021/08/26 19:02:28;;;;;;;3.27;2.97;;;14.80;99.90;;;;;;5111707;27;20561;-64
2021/08/26 19:04:55;;;;;;;4.57;3.90;;;14.80;99.90;;;;;;5111399;28;20448;-64
2021/08/26 19:07:21;;;;;;;3.67;3.20;;;14.80;99.90;;;;;;5112058;28;20442;-65
2021/08/26 19:09:48;;;;;;;6.30;3.17;;;14.90;99.90;;;;;;5103623;28;20441;-64
2021/08/26 19:12:15;;;;;;;6.43;3.80;;;15.10;99.90;;;;;;5099470;28;20469;-64
2021/08/26 19:14:41;;;;;;;4.77;3.53;;;15.20;99.90;;;;;;5097229;28;20452;-65
2021/08/26 19:17:09;;;;;;;4.07;3.47;;;15.30;99.90;;;;;;5093574;28;20449;-65
2021/08/26 19:19:37;;;;;;;3.90;3.60;;;15.30;99.90;;;;;;5093248;28;20449;-64
2021/08/26 19:22:04;;;;;;;4.33;3.93;;;15.40;99.90;;;;;;5092815;28;20845;-64
2021/08/26 19:24:31;;;;;;;4.37;3.87;;;15.50;99.90;;;;;;5092947;28;20472;-64
2021/08/26 19:26:58;;;;;;;5.13;4.20;;;15.50;99.90;;;;;;5092505;28;20493;-65
2021/08/26 19:29:24;;;;;;;3.97;3.67;;;15.50;99.90;;;;;;5092741;28;20454;-65
2021/08/26 19:31:51;;;;;;;5.30;4.00;;;15.60;99.90;;;;;;5092076;28;20995;-64
2021/08/26 19:34:18;;;;;;;5.00;4.30;;;15.60;99.90;;;;;;5092543;28;20450;-65
2021/08/26 19:36:46;;;;;;;5.63;4.10;;;15.60;99.90;;;;;;5092035;28;20456;-66
2021/08/26 19:39:12;;;;;;;5.30;3.87;;;15.60;99.90;;;;;;5092008;28;20449;-64
2021/08/26 19:41:39;;;;;;;3.77;3.47;;;15.60;99.90;;;;;;5091844;28;20478;-63
2021/08/26 19:44:06;;;;;;;4.23;3.80;;;15.60;99.90;;;;;;5091622;28;20445;-63
2021/08/26 19:46:33;;;;;;;3.70;3.40;;;15.60;99.90;;;;;;5092646;28;20767;-63
2021/08/26 19:48:59;;;;;;;4.73;4.20;;;15.60;99.90;;;;;;5092083;28;20453;-63
2021/08/26 19:51:26;;;;;;;4.00;3.63;;;15.60;99.90;;;;;;5091652;28;20465;-65
2021/08/26 19:53:54;;;;;;;4.67;4.10;;;15.60;99.90;;;;;;5092191;28;20456;-64
2021/08/26 19:56:21;;;;;;;4.57;3.90;;;15.60;99.90;;;;;;5092277;28;20457;-64
2021/08/26 19:58:50;;;;;;;5.23;4.80;;;15.60;99.90;;;;;;5091451;28;20493;-63
2021/08/26 20:01:19;;;;;;;4.80;4.27;;;15.60;99.90;;;;;;5091487;28;20477;-63
2021/08/26 20:03:46;;;;;;;4.93;4.43;;;15.60;99.90;;;;;;5091449;28;20805;-63
2021/08/26 20:06:13;;;;;;;5.00;4.60;;;15.60;99.90;;;;;;5091414;28;20461;-64
2021/08/26 20:08:39;;;;;;;5.83;4.60;;;15.60;99.90;;;;;;5091030;28;20449;-65
2021/08/26 20:11:08;;;;;;;5.07;4.63;;;15.60;99.90;;;;;;5091158;28;20972;-64
2021/08/26 20:13:35;;;;;;;5.03;4.53;;;15.60;99.90;;;;;;5079069;28;20454;-64
2021/08/26 20:16:02;;;;;;;4.97;4.47;;;15.50;99.90;;;;;;5077688;28;20454;-65
2021/08/26 20:18:29;;;;;;;5.80;4.90;;;15.50;99.90;;;;;;5077384;28;20446;-65
2021/08/26 20:20:55;;;;;;;4.97;4.57;;;15.50;99.90;;;;;;5077289;28;20501;-64
2021/08/26 20:23:22;;;;;;;9.73;5.33;;;15.40;99.90;;;;;;5077036;28;20457;-63
2021/08/26 20:25:49;;;;;;;5.03;4.63;;;15.40;99.90;;;;;;5081521;28;20503;-63
2021/08/26 20:28:17;;;;;;;5.77;5.13;;;15.40;99.90;;;;;;5093539;28;20430;-64
2021/08/26 20:30:44;;;;;;;5.30;4.80;;;15.40;99.90;;;;;;5098554;28;20459;-64
2021/08/26 20:33:10;;;;;;;5.53;5.03;;;15.40;99.90;;;;;;5084458;28;20451;-64
2021/08/26 20:35:38;;;;;;;6.60;5.30;;;15.40;99.90;;;;;;5077573;28;20454;-63
2021/08/26 20:38:05;;;;;;;5.30;4.80;;;15.40;99.90;;;;;;5076947;28;20960;-64
2021/08/26 20:40:32;;;;;;;7.30;5.13;;;15.30;99.90;;;;;;5076747;28;20825;-65
2021/08/26 20:42:59;;;;;;;5.57;5.17;;;15.30;99.90;;;;;;5076763;28;20461;-65
2021/08/26 20:45:27;;;;;;;5.43;4.90;;;15.20;99.90;;;;;;5076588;28;20454;-64
2021/08/26 20:47:56;;;;;;;6.10;5.60;;;15.20;99.90;;;;;;5076627;28;20458;-64
2021/08/26 20:50:22;;;;;;;7.20;6.30;;;15.20;99.90;;;;;;5076895;28;20450;-65
2021/08/26 20:52:49;;;;;;;6.20;5.10;;;15.10;99.90;;;;;;5076720;28;20886;-65
2021/08/26 20:55:16;;;;;;;7.40;5.47;;;15.10;99.90;;;;;;5076475;28;20457;-64
2021/08/26 20:57:42;;;;;;;5.80;5.20;;;15.00;99.90;;;;;;5076698;28;20450;-65
2021/08/26 21:00:11;;;;;;;5.90;5.30;;;15.00;99.90;;;;;;5075626;28;20937;-66
2021/08/26 21:02:40;;;;;;;5.93;5.03;;;14.90;99.90;;;;;;5076106;28;20490;-65
2021/08/26 21:05:07;;;;;;;5.67;5.17;;;14.90;99.90;;;;;;5076489;28;20478;-66
2021/08/26 21:07:34;;;;;;;6.27;5.70;;;14.90;99.90;;;;;;5076246;28;20457;-65
2021/08/26 21:10:01;;;;;;;8.90;5.37;;;14.80;99.90;;;;;;5076168;28;20454;-65
2021/08/26 21:12:28;;;;;;;6.20;5.70;;;14.80;99.90;;;;;;5076005;28;20466;-65
2021/08/26 21:14:54;;;;;;;8.43;5.67;;;14.80;99.90;;;;;;5076146;28;20943;-65
2021/08/26 21:17:21;;;;;;;6.90;5.37;;;14.70;99.90;;;;;;5076098;28;20450;-65
2021/08/26 21:19:49;;;;;;;5.93;5.43;;;14.70;99.90;;;;;;5076316;28;20435;-65
2021/08/26 21:22:16;;;;;;;7.50;5.70;;;14.70;99.90;;;;;;5077234;28;20489;-64
2021/08/26 21:24:43;;;;;;;5.73;5.20;;;14.60;99.90;;;;;;5076182;28;20461;-65
2021/08/26 21:27:10;;;;;;;5.70;4.63;;;14.60;99.90;;;;;;5076534;28;20454;-65
2021/08/26 21:29:37;;;;;;;5.63;5.13;;;14.60;99.90;;;;;;5076108;28;20454;-65
2021/08/26 21:32:04;;;;;;;5.27;4.77;;;14.70;99.90;;;;;;5076110;28;20466;-65
2021/08/26 21:34:31;;;;;;;5.60;4.90;;;14.70;99.90;;;;;;5075843;28;20820;-65
2021/08/26 21:36:59;;;;;;;4.83;4.40;;;14.70;99.90;;;;;;5075637;28;20434;-65
2021/08/26 21:39:25;;;;;;;6.87;4.80;;;14.70;99.90;;;;;;5075817;28;20477;-64
2021/08/26 21:41:53;;;;;;;5.73;5.13;;;14.60;99.90;;;;;;5075240;28;20481;-66
2021/08/26 21:44:19;;;;;;;8.70;4.63;;;14.60;99.90;;;;;;5075438;28;20458;-65
2021/08/26 21:46:46;;;;;;;6.00;5.40;;;14.60;99.90;;;;;;5075543;28;20438;-64
2021/08/26 21:49:14;;;;;;;7.37;5.50;;;14.60;99.90;;;;;;5075452;28;20434;-64
2021/08/26 21:51:40;;;;;;;6.47;5.63;;;14.60;99.90;;;;;;5075041;28;20466;-65
2021/08/26 21:54:09;;;;;;;6.20;5.30;;;14.50;99.90;;;;;;5074657;28;20450;-65
2021/08/26 21:56:35;;;;;;;6.17;5.50;;;14.60;99.90;;;;;;5075182;28;20533;-65
2021/08/26 21:59:02;;;;;;;7.70;6.00;;;14.60;99.90;;;;;;5075325;28;20456;-64
